METAR Data
IDs: Format: Raw Decoded Include TAF

Data at: 0738 UTC 18 Nov 2018

PAMC 180653Z AUTO 00000KT 10SM UP BKN050 OVC080 M07/M10 A2952 RMK AO2 UPB05E23B47FZRAB23E47SNB0554E05 SLP006 P0002 I1001 T10721100 TSNO $
PAMC 180629Z AUTO 29003KT 8SM -FZRA BKN044 OVC055 M07/M10 A2953 RMK AO2 UPB05E23FZRAB23SNB0554E05 P0002 I1001 T10721100 TSNO $
PAMC 180553Z AUTO 00000KT 9SM OVC050 M07/M11 A2953 RMK AO2 SLP010 T10721106 11072 21083 51000 TSNO $
PAMC 180453Z AUTO 00000KT 10SM OVC070 M08/M11 A2953 RMK AO2 SLP009 T10781106 TSNO $
PAMC 180353Z AUTO 00000KT 10SM SCT080 OVC100 M08/M11 A2954 RMK AO2 SLP012 T10831111 TSNO $
PAMC 180253Z AUTO 00000KT 10SM OVC100 M08/M11 A2953 RMK AO2 SLP010 T10831111 56014 TSNO $
PAMC 180153Z AUTO 35003KT 10SM BKN110 M08/M11 A2954 RMK AO2 SLP012 T10831111 TSNO $
PAMC 180053Z AUTO 00000KT 10SM OVC110 M08/M12 A2955 RMK AO2 SLP015 T10781117 TSNO $
PAMC 172353Z AUTO 00000KT 10SM OVC110 M08/M12 A2957 RMK AO2 SLP023 T10781117 11078 21100 58016 TSNO $
PAMC 172253Z AUTO 00000KT 10SM OVC110 M08/M12 A2959 RMK AO2 SLP029 T10781122 TSNO $
PAMC 172153Z AUTO 00000KT 10SM SCT090 M08/M13 A2961 RMK AO2 SLP034 T10831128 TSNO $
PAMC 172053Z AUTO 00000KT 10SM SCT060 BKN095 M09/M13 A2962 RMK AO2 SLP038 T10941128 57008 TSNO $
PAMC 171953Z AUTO 00000KT 10SM SCT060 BKN080 OVC100 M09/M13 A2963 RMK AO2 SLP042 T10941128 TSNO $
PAMC 171853Z AUTO 00000KT 10SM SCT055 BKN085 M10/M13 A2964 RMK AO2 SLP046 T11001128 TSNO $
PAMC 171753Z AUTO 00000KT 10SM BKN080 OVC110 M10/M13 A2964 RMK AO2 SLP048 T11001128 11072 21100 56005 TSNO $
PAMC 171653Z AUTO 00000KT 10SM BKN080 M10/M13 A2965 RMK AO2 SLP049 T11001133 TSNO $
PAMC 171553Z AUTO 13003KT 10SM FEW085 M09/M13 A2966 RMK AO2 SLP051 T10941128 TSNO $
PAMC 171453Z AUTO 14004KT 10SM OVC095 M09/M12 A2966 RMK AO2 SLP053 T10891122 57012 TSNO $
PAMC 171353Z AUTO 15003KT 10SM OVC100 M08/M12 A2967 RMK AO2 SLP056 T10831117 TSNO $
PAMC 171253Z AUTO 14005KT 10SM OVC100 M08/M12 A2968 RMK AO2 SLP059 T10781117 TSNO $
PAMC 171053Z AUTO 15005KT 10SM OVC095 M07/M11 A2971 RMK AO2 SLP068 T10671106 TSNO $
PAMC 170953Z AUTO 19003KT 10SM OVC085 M07/M11 A2973 RMK AO2 SLP076 T10671106 TSNO $
PAMC 170853Z AUTO 17004KT 10SM OVC090 M07/M11 A2974 RMK AO2 SLP079 T10671106 410671200 56014 TSNO $
PAMC 170753Z AUTO 20003KT 10SM OVC090 M07/M10 A2974 RMK AO2 SLP081 T10721100 TSNO $
PAMC 170653Z AUTO VRB04KT 10SM BKN100 M07/M09 A2975 RMK AO2 SLP084 T10721094 TSNO $
PAMC 170553Z AUTO 00000KT 10SM OVC080 M07/M09 A2978 RMK AO2 SLP094 T10721094 11072 21089 56017 TSNO $
PAMC 170453Z AUTO 00000KT 10SM SCT095 M07/M10 A2979 RMK AO2 SLP098 T10721100 TSNO $
PAMC 170353Z AUTO 34005KT 10SM FEW075 OVC110 M07/M10 A2982 RMK AO2 SLP106 T10721100 TSNO $
PAMC 170253Z AUTO 35004KT 10SM OVC090 M08/M10 A2983 RMK AO2 SLP112 T10781100 56020 TSNO $
PAMC 170153Z AUTO 35006KT 10SM OVC080 M08/M11 A2985 RMK AO2 SLP117 T10781106 TSNO $
PAMC 170053Z AUTO 10SM BKN070 OVC090 M08/M11 A2987 RMK AO2 SLP124 T10831111 TSNO $
PAMC 162353Z AUTO 10SM SCT090 OVC110 M09/M12 A2989 RMK AO2 SLP132 T10891117 11089 21133 56025 TSNO $
PAMC 162253Z AUTO 34006KT 10SM OVC070 M09/M12 A2992 RMK AO2 SLP141 T10941122 TSNO $
PAMC 162153Z AUTO 34006KT 10SM OVC070 M11/M13 A2993 RMK AO2 SLP148 T11061133 TSNO $
PAMC 162053Z AUTO 00000KT 10SM OVC070 M11/M14 A2996 RMK AO2 SLP158 T11111139 56015 TSNO $
PAMC 161953Z AUTO VRB05KT 10SM OVC070 M12/M14 A2997 RMK AO2 SLP161 T11221144 TSNO $